createdAt,value
2022-09-18T00:00:03.348Z,10.40
2022-09-18T00:02:51.594Z,10.40
2022-09-18T00:05:40.557Z,10.40
2022-09-18T00:08:28.709Z,10.40
2022-09-18T00:11:17.381Z,10.50
2022-09-18T00:14:07.750Z,10.50
2022-09-18T00:16:57.257Z,10.50
2022-09-18T00:19:45.458Z,10.50
2022-09-18T00:22:34.479Z,10.50
2022-09-18T00:25:22.680Z,10.50
2022-09-18T00:28:10.866Z,10.40
2022-09-18T00:31:05.519Z,10.40
2022-09-18T00:33:55.296Z,10.40
2022-09-18T00:36:43.886Z,10.30
2022-09-18T00:39:32.047Z,10.20
2022-09-18T00:42:21.589Z,10.10
2022-09-18T00:45:10.869Z,10.10
2022-09-18T00:47:59.081Z,10.10
2022-09-18T00:50:48.949Z,10.00
2022-09-18T00:53:39.486Z,9.90
2022-09-18T00:56:28.818Z,9.90
2022-09-18T00:59:23.321Z,9.90
2022-09-18T01:02:12.270Z,9.90
2022-09-18T01:05:00.581Z,10.00
2022-09-18T01:08:07.645Z,9.90
2022-09-18T01:11:28.784Z,10.00
2022-09-18T01:14:29.425Z,10.00
2022-09-18T01:17:26.252Z,10.00
2022-09-18T01:20:47.008Z,10.00
2022-09-18T01:24:03.046Z,10.00
2022-09-18T01:26:57.572Z,10.00
2022-09-18T01:29:54.419Z,10.00
2022-09-18T01:32:48.478Z,10.00
2022-09-18T01:35:42.769Z,10.00
2022-09-18T01:38:36.041Z,10.00
2022-09-18T01:41:26.672Z,10.00
2022-09-18T01:44:18.272Z,10.00
2022-09-18T01:47:12.209Z,10.00
2022-09-18T01:50:02.668Z,10.00
2022-09-18T01:52:56.207Z,10.00
2022-09-18T01:55:50.075Z,10.00
2022-09-18T01:58:38.427Z,10.00
2022-09-18T02:01:31.212Z,9.90
2022-09-18T02:04:26.495Z,10.00
2022-09-18T02:07:20.446Z,9.90
2022-09-18T02:10:09.271Z,9.90
2022-09-18T02:12:58.211Z,9.90
2022-09-18T02:15:47.782Z,9.80
2022-09-18T02:18:42.050Z,9.90
2022-09-18T02:21:33.497Z,9.90
2022-09-18T02:24:25.517Z,9.90
2022-09-18T02:27:16.419Z,9.90
2022-09-18T02:30:07.579Z,9.90
2022-09-18T02:32:55.994Z,9.90
2022-09-18T02:35:50.693Z,9.90
2022-09-18T02:38:50.217Z,9.80
2022-09-18T02:41:45.405Z,9.90
2022-09-18T02:44:43.482Z,9.80
2022-09-18T02:47:43.921Z,9.90
2022-09-18T02:50:40.211Z,9.90
2022-09-18T02:53:33.160Z,9.90
2022-09-18T02:56:32.579Z,9.90
2022-09-18T02:59:26.152Z,9.90
2022-09-18T03:02:14.568Z,9.90
2022-09-18T03:05:03.070Z,9.80
2022-09-18T03:07:51.313Z,9.80
2022-09-18T03:10:39.721Z,9.90
2022-09-18T03:13:29.339Z,9.90
2022-09-18T03:16:18.766Z,9.90
2022-09-18T03:19:07.033Z,9.90
2022-09-18T03:21:55.226Z,9.90
2022-09-18T03:24:43.478Z,9.90
2022-09-18T03:27:31.653Z,9.90
2022-09-18T03:30:21.204Z,9.90
2022-09-18T03:33:09.368Z,9.90
2022-09-18T03:35:57.633Z,9.90
2022-09-18T03:38:45.819Z,9.90
2022-09-18T03:41:34.008Z,9.80
2022-09-18T03:44:22.186Z,9.80
2022-09-18T03:47:11.702Z,9.90
2022-09-18T03:49:59.965Z,9.90
2022-09-18T03:52:51.672Z,9.90
2022-09-18T03:55:39.983Z,9.90
2022-09-18T03:58:28.165Z,9.90
2022-09-18T04:01:16.316Z,9.90
2022-09-18T04:04:05.879Z,9.90
2022-09-18T04:06:54.120Z,9.80
2022-09-18T04:09:42.307Z,9.90
2022-09-18T04:12:30.542Z,9.90
2022-09-18T04:15:19.174Z,9.80
2022-09-18T04:18:07.400Z,9.80
2022-09-18T04:20:56.881Z,9.80
2022-09-18T04:23:45.064Z,9.80
2022-09-18T04:26:34.391Z,9.80
2022-09-18T04:29:22.873Z,9.70
2022-09-18T04:32:11.007Z,9.80
2022-09-18T04:34:59.404Z,9.70
2022-09-18T04:37:48.892Z,9.70
2022-09-18T04:40:37.089Z,9.70
2022-09-18T04:43:26.520Z,9.70
2022-09-18T04:46:15.072Z,9.70
2022-09-18T04:49:03.413Z,9.70
2022-09-18T04:51:51.619Z,9.80
2022-09-18T04:54:41.537Z,9.70
2022-09-18T04:57:30.172Z,9.70
2022-09-18T05:00:18.838Z,9.70
2022-09-18T05:03:07.153Z,9.70
2022-09-18T05:05:56.209Z,9.60
2022-09-18T05:08:44.388Z,9.60
2022-09-18T05:11:33.892Z,9.60
2022-09-18T05:14:22.058Z,9.60
2022-09-18T05:17:10.210Z,9.60
2022-09-18T05:19:58.358Z,9.60
2022-09-18T05:22:47.317Z,9.60
2022-09-18T05:25:35.502Z,9.60
2022-09-18T05:28:25.354Z,9.60
2022-09-18T05:31:13.549Z,9.70
2022-09-18T05:34:01.746Z,9.70
2022-09-18T05:36:49.891Z,9.70
2022-09-18T05:39:38.076Z,9.70
2022-09-18T05:42:26.261Z,9.80
2022-09-18T05:45:16.017Z,9.70
2022-09-18T05:48:06.402Z,9.80
2022-09-18T05:50:54.620Z,9.80
2022-09-18T05:53:48.283Z,9.80
2022-09-18T05:56:36.509Z,9.90
2022-09-18T05:59:24.691Z,10.00
2022-09-18T06:02:14.247Z,10.00
2022-09-18T06:05:02.569Z,10.00
2022-09-18T06:07:52.530Z,10.10
2022-09-18T06:10:42.699Z,10.10
2022-09-18T06:13:30.844Z,10.20
2022-09-18T06:16:19.606Z,10.20
2022-09-18T06:19:09.153Z,10.30
2022-09-18T06:21:57.467Z,10.30
2022-09-18T06:24:45.649Z,10.40
2022-09-18T06:27:34.912Z,10.40
2022-09-18T06:30:23.097Z,10.50
2022-09-18T06:33:11.845Z,10.50
2022-09-18T06:36:01.641Z,10.60
2022-09-18T06:38:51.400Z,10.60
2022-09-18T06:41:39.573Z,10.70
2022-09-18T06:44:27.781Z,10.70
2022-09-18T06:47:15.964Z,10.80
2022-09-18T06:50:05.422Z,10.90
2022-09-18T06:52:54.949Z,10.90
2022-09-18T06:55:43.092Z,10.80
2022-09-18T06:58:31.911Z,10.90
2022-09-18T07:01:20.203Z,11.00
2022-09-18T07:04:08.584Z,11.10
2022-09-18T07:06:56.737Z,11.10
2022-09-18T07:09:46.236Z,11.10
2022-09-18T07:12:34.416Z,11.10
2022-09-18T07:15:22.549Z,11.20
2022-09-18T07:18:11.209Z,11.30
2022-09-18T07:20:59.807Z,11.30
2022-09-18T07:23:47.955Z,11.40
2022-09-18T07:26:37.480Z,11.40
2022-09-18T07:29:25.657Z,11.40
2022-09-18T07:32:13.913Z,11.40
2022-09-18T07:35:02.044Z,11.60
2022-09-18T07:37:50.286Z,11.60
2022-09-18T07:40:40.300Z,11.70
2022-09-18T07:43:29.857Z,11.80
2022-09-18T07:46:18.233Z,11.80
2022-09-18T07:49:06.395Z,11.90
2022-09-18T07:51:54.803Z,11.90
2022-09-18T07:54:43.299Z,12.00
2022-09-18T07:57:31.508Z,12.00
2022-09-18T08:00:21.169Z,12.10
2022-09-18T08:03:12.194Z,12.20
2022-09-18T08:06:00.676Z,12.20
2022-09-18T08:08:52.990Z,12.20
2022-09-18T08:11:43.034Z,12.20
2022-09-18T08:14:31.219Z,12.30
2022-09-18T08:17:20.699Z,12.40
2022-09-18T08:20:10.167Z,12.40
2022-09-18T08:22:58.575Z,12.50
2022-09-18T08:25:47.646Z,12.50
2022-09-18T08:28:35.977Z,12.50
2022-09-18T08:31:24.450Z,12.60
2022-09-18T08:34:14.089Z,12.60
2022-09-18T08:37:02.265Z,12.60
2022-09-18T08:39:50.416Z,12.70
2022-09-18T08:42:46.636Z,12.70
2022-09-18T08:45:53.673Z,12.90
2022-09-18T08:48:51.178Z,12.90
2022-09-18T08:51:46.748Z,12.90
2022-09-18T08:54:45.213Z,13.00
2022-09-18T08:57:37.949Z,13.10
2022-09-18T09:00:31.539Z,13.20
2022-09-18T09:03:27.860Z,13.20
2022-09-18T09:06:27.237Z,13.20
2022-09-18T09:09:42.735Z,13.10
2022-09-18T09:12:41.139Z,13.10
2022-09-18T09:15:36.117Z,13.10
2022-09-18T09:18:32.408Z,13.10
2022-09-18T09:21:23.700Z,13.30
2022-09-18T09:24:28.769Z,13.50
2022-09-18T09:27:22.280Z,13.60
2022-09-18T09:30:15.299Z,13.70
2022-09-18T09:33:13.227Z,13.70
2022-09-18T09:36:05.236Z,13.80
2022-09-18T09:38:58.485Z,13.90
2022-09-18T09:41:53.737Z,14.00
2022-09-18T09:44:47.333Z,13.90
2022-09-18T09:47:43.316Z,14.00
2022-09-18T09:50:41.110Z,14.00
2022-09-18T09:53:30.026Z,13.80
2022-09-18T09:56:25.933Z,13.50
2022-09-18T09:59:25.385Z,13.20
2022-09-18T10:02:41.767Z,13.20
2022-09-18T10:05:36.109Z,13.20
2022-09-18T10:08:32.106Z,13.10
2022-09-18T10:11:20.339Z,13.30
2022-09-18T10:14:13.616Z,13.40
2022-09-18T10:17:05.209Z,13.30
2022-09-18T10:19:53.760Z,13.30
2022-09-18T10:22:42.705Z,13.20
2022-09-18T10:25:42.750Z,13.10
2022-09-18T10:28:32.136Z,13.20
2022-09-18T10:31:20.434Z,13.40
2022-09-18T10:34:33.046Z,13.50
2022-09-18T10:37:40.613Z,13.60
2022-09-18T10:40:33.963Z,13.60
2022-09-18T10:43:22.578Z,13.60
2022-09-18T10:46:36.992Z,13.50
2022-09-18T10:49:31.832Z,13.50
2022-09-18T10:52:41.704Z,13.50
2022-09-18T10:55:32.400Z,13.40
2022-09-18T10:58:29.471Z,13.60
2022-09-18T11:01:19.707Z,13.70
2022-09-18T11:04:15.329Z,13.80
2022-09-18T11:07:07.966Z,14.00
2022-09-18T11:09:56.855Z,14.20
2022-09-18T11:13:27.619Z,14.40
2022-09-18T11:17:32.492Z,14.40
2022-09-18T11:20:27.004Z,14.40
2022-09-18T11:23:25.202Z,14.20
2022-09-18T11:26:20.238Z,14.20
2022-09-18T11:29:22.465Z,14.40
2022-09-18T11:32:17.543Z,14.70
2022-09-18T11:35:15.362Z,14.90
2022-09-18T11:38:07.963Z,15.10
2022-09-18T11:41:00.420Z,15.30
2022-09-18T11:44:01.329Z,15.50
2022-09-18T11:47:20.948Z,15.70
2022-09-18T11:50:15.138Z,15.90
2022-09-18T11:53:09.773Z,15.90
2022-09-18T11:56:05.969Z,16.10
2022-09-18T11:58:59.444Z,16.30
2022-09-18T12:01:53.898Z,16.30
2022-09-18T12:04:49.494Z,16.20
2022-09-18T12:07:43.424Z,16.30
2022-09-18T12:10:46.643Z,16.10
2022-09-18T12:13:45.617Z,15.90
2022-09-18T12:16:46.114Z,16.00
2022-09-18T12:19:37.941Z,16.10
2022-09-18T12:22:31.166Z,16.10
2022-09-18T12:25:22.864Z,16.10
2022-09-18T12:28:18.515Z,16.10
2022-09-18T12:31:15.363Z,15.70
2022-09-18T12:34:13.249Z,15.50
2022-09-18T12:37:15.277Z,15.20
2022-09-18T12:40:34.032Z,15.30
2022-09-18T12:43:41.447Z,15.50
2022-09-18T12:46:47.282Z,15.70
2022-09-18T12:49:58.907Z,15.70
2022-09-18T12:53:08.522Z,15.50
2022-09-18T12:56:09.637Z,15.20
2022-09-18T12:59:22.065Z,15.10
2022-09-18T13:02:31.404Z,15.00
2022-09-18T13:05:26.151Z,14.80
2022-09-18T13:08:20.881Z,14.00
2022-09-18T13:11:15.216Z,13.00
2022-09-18T13:14:10.399Z,12.00
2022-09-18T13:17:06.428Z,11.40
2022-09-18T13:20:00.975Z,10.90
2022-09-18T13:22:53.347Z,10.60
2022-09-18T13:25:43.333Z,10.30
2022-09-18T13:28:31.890Z,10.10
2022-09-18T13:31:26.426Z,9.90
2022-09-18T13:34:19.957Z,9.90
2022-09-18T13:37:17.904Z,9.80
2022-09-18T13:40:26.347Z,9.70
2022-09-18T13:43:25.370Z,9.70
2022-09-18T13:46:33.666Z,9.70
2022-09-18T13:49:30.351Z,9.70
2022-09-18T13:52:43.820Z,9.70
2022-09-18T13:55:38.247Z,9.70
2022-09-18T13:58:52.218Z,9.70
2022-09-18T14:02:04.328Z,9.70
2022-09-18T14:05:29.600Z,9.70
2022-09-18T14:08:39.036Z,9.70
2022-09-18T14:11:27.422Z,9.80
2022-09-18T14:14:22.660Z,9.90
2022-09-18T14:17:13.878Z,10.00
2022-09-18T14:20:08.285Z,10.00
2022-09-18T14:22:56.496Z,10.00
2022-09-18T14:25:48.071Z,10.10
2022-09-18T14:28:38.030Z,10.10
2022-09-18T14:31:29.501Z,10.10
2022-09-18T14:34:23.310Z,10.10
2022-09-18T14:37:24.579Z,10.20
2022-09-18T14:40:21.109Z,10.20
2022-09-18T14:43:17.818Z,10.30
2022-09-18T14:46:06.812Z,10.40
2022-09-18T14:48:56.053Z,10.40
2022-09-18T14:52:03.085Z,10.50
2022-09-18T14:54:54.670Z,10.60
2022-09-18T14:57:46.893Z,10.70
2022-09-18T15:00:39.321Z,10.90
2022-09-18T15:03:30.249Z,11.00
2022-09-18T15:06:22.235Z,11.10
2022-09-18T15:09:12.965Z,11.20
2022-09-18T15:12:03.333Z,11.30
2022-09-18T15:14:52.106Z,11.40
2022-09-18T15:17:45.879Z,11.40
2022-09-18T15:20:34.077Z,11.40
2022-09-18T15:23:27.497Z,11.40
2022-09-18T15:26:18.393Z,11.30
2022-09-18T15:29:18.461Z,11.30
2022-09-18T15:32:07.980Z,11.20
2022-09-18T15:34:59.318Z,11.20
2022-09-18T15:37:52.195Z,11.10
2022-09-18T15:40:41.050Z,11.10
2022-09-18T15:43:43.439Z,11.10
2022-09-18T15:46:34.142Z,11.10
2022-09-18T15:49:30.371Z,11.00
2022-09-18T15:52:37.990Z,10.90
2022-09-18T15:55:28.871Z,10.90
2022-09-18T15:58:27.493Z,11.00
2022-09-18T16:01:18.868Z,10.90
2022-09-18T16:04:17.003Z,10.90
2022-09-18T16:07:07.506Z,10.90
2022-09-18T16:09:57.145Z,10.90
2022-09-18T16:12:45.500Z,10.80
2022-09-18T16:15:35.631Z,10.70
2022-09-18T16:18:27.192Z,10.70
2022-09-18T16:21:15.523Z,10.70
2022-09-18T16:24:03.746Z,10.60
2022-09-18T16:26:53.413Z,10.60
2022-09-18T16:29:41.632Z,10.70
2022-09-18T16:32:29.833Z,10.70
2022-09-18T16:35:19.194Z,10.80
2022-09-18T16:38:07.489Z,10.70
2022-09-18T16:40:55.786Z,10.70
2022-09-18T16:43:45.365Z,10.70
2022-09-18T16:46:38.712Z,10.60
2022-09-18T16:49:29.342Z,10.50
2022-09-18T16:52:18.079Z,10.50
2022-09-18T16:55:07.412Z,10.40
2022-09-18T16:57:57.101Z,10.30
2022-09-18T17:00:46.880Z,10.20
2022-09-18T17:03:35.122Z,10.20
2022-09-18T17:06:23.333Z,10.10
2022-09-18T17:09:11.566Z,10.10
2022-09-18T17:12:00.372Z,10.00
2022-09-18T17:14:49.176Z,10.00
2022-09-18T17:17:38.897Z,10.00
2022-09-18T17:20:27.218Z,9.90
2022-09-18T17:23:15.698Z,9.80
2022-09-18T17:26:06.302Z,9.80
2022-09-18T17:28:54.672Z,9.70
2022-09-18T17:31:44.751Z,9.60
2022-09-18T17:34:34.793Z,9.60
2022-09-18T17:37:23.110Z,9.50
2022-09-18T17:40:11.955Z,9.50
2022-09-18T17:43:00.340Z,9.50
2022-09-18T17:45:53.707Z,9.50
2022-09-18T17:48:42.056Z,9.60
2022-09-18T17:51:31.633Z,9.60
2022-09-18T17:54:20.193Z,9.60
2022-09-18T17:57:11.597Z,9.60
2022-09-18T17:59:59.922Z,9.70
2022-09-18T18:02:48.120Z,9.70
2022-09-18T18:05:36.494Z,9.60
2022-09-18T18:08:27.387Z,9.60
2022-09-18T18:11:17.352Z,9.50
2022-09-18T18:14:06.406Z,9.50
2022-09-18T18:16:55.197Z,9.50
2022-09-18T18:19:43.623Z,9.40
2022-09-18T18:22:31.887Z,9.40
2022-09-18T18:25:23.599Z,9.40
2022-09-18T18:28:12.241Z,9.50
2022-09-18T18:31:07.031Z,9.50
2022-09-18T18:33:57.041Z,9.50
2022-09-18T18:36:45.249Z,9.60
2022-09-18T18:39:33.755Z,9.50
2022-09-18T18:42:23.320Z,9.50
2022-09-18T18:45:11.493Z,9.40
2022-09-18T18:47:59.708Z,9.30
2022-09-18T18:50:47.897Z,9.30
2022-09-18T18:53:36.245Z,9.20
2022-09-18T18:56:25.481Z,9.20
2022-09-18T18:59:17.853Z,9.20
2022-09-18T19:02:06.256Z,9.20
2022-09-18T19:05:02.766Z,9.20
2022-09-18T19:07:51.040Z,9.20
2022-09-18T19:10:39.274Z,9.20
2022-09-18T19:13:27.529Z,9.30
2022-09-18T19:16:17.527Z,9.30
2022-09-18T19:19:09.668Z,9.30
2022-09-18T19:21:59.770Z,9.40
2022-09-18T19:24:48.481Z,9.40
2022-09-18T19:27:38.659Z,9.50
2022-09-18T19:30:27.064Z,9.50
2022-09-18T19:33:18.131Z,9.50
2022-09-18T19:36:07.880Z,9.50
2022-09-18T19:38:57.906Z,9.50
2022-09-18T19:41:49.162Z,9.60
2022-09-18T19:44:40.677Z,9.60
2022-09-18T19:47:31.764Z,9.50
2022-09-18T19:50:23.578Z,9.60
2022-09-18T19:53:11.803Z,9.60
2022-09-18T19:56:00.414Z,9.60
2022-09-18T19:58:51.004Z,9.60
2022-09-18T20:01:39.313Z,9.60
2022-09-18T20:04:27.550Z,9.60
2022-09-18T20:07:17.093Z,9.70
2022-09-18T20:10:06.257Z,9.70
2022-09-18T20:12:54.705Z,9.70
2022-09-18T20:15:44.757Z,9.70
2022-09-18T20:18:33.241Z,9.80
2022-09-18T20:21:21.831Z,9.80
2022-09-18T20:24:11.362Z,9.80
2022-09-18T20:26:59.879Z,9.80
2022-09-18T20:29:48.247Z,9.80
2022-09-18T20:32:36.658Z,9.80
2022-09-18T20:35:24.993Z,9.80
2022-09-18T20:38:13.188Z,9.80
2022-09-18T20:41:06.938Z,9.80
2022-09-18T20:43:55.374Z,9.70
2022-09-18T20:46:43.636Z,9.80
2022-09-18T20:49:32.140Z,9.70
2022-09-18T20:52:20.347Z,9.70
2022-09-18T20:55:09.939Z,9.70
2022-09-18T20:58:02.253Z,9.70
2022-09-18T21:00:51.193Z,9.70
2022-09-18T21:03:41.126Z,9.70
2022-09-18T21:06:32.293Z,9.70
2022-09-18T21:09:20.732Z,9.70
2022-09-18T21:12:09.851Z,9.70
2022-09-18T21:15:01.379Z,9.70
2022-09-18T21:17:50.062Z,9.70
2022-09-18T21:20:38.272Z,9.70
2022-09-18T21:23:43.910Z,9.70
2022-09-18T21:26:35.612Z,9.70
2022-09-18T21:29:26.091Z,9.70
2022-09-18T21:32:15.630Z,9.70
2022-09-18T21:35:04.020Z,9.70
2022-09-18T21:37:55.106Z,9.70
2022-09-18T21:40:44.491Z,9.80
2022-09-18T21:43:32.871Z,9.80
2022-09-18T21:46:22.466Z,9.80
2022-09-18T21:49:14.892Z,9.80
2022-09-18T21:52:05.058Z,9.80
2022-09-18T21:54:53.250Z,9.90
2022-09-18T21:57:41.786Z,9.90
2022-09-18T22:00:30.069Z,9.90
2022-09-18T22:03:18.356Z,9.90
2022-09-18T22:06:08.090Z,9.90
2022-09-18T22:08:58.123Z,10.00
2022-09-18T22:11:47.307Z,10.00
2022-09-18T22:14:38.322Z,10.00
2022-09-18T22:17:27.050Z,10.00
2022-09-18T22:20:15.382Z,10.10
2022-09-18T22:23:05.159Z,10.10
2022-09-18T22:25:53.596Z,10.10
2022-09-18T22:28:42.366Z,10.10
2022-09-18T22:31:31.023Z,10.20
2022-09-18T22:34:21.531Z,10.20
2022-09-18T22:37:10.969Z,10.30
2022-09-18T22:40:00.590Z,10.30
2022-09-18T22:42:48.958Z,10.20
2022-09-18T22:45:37.148Z,10.30
2022-09-18T22:48:25.358Z,10.30
2022-09-18T22:51:15.091Z,10.30
2022-09-18T22:54:07.672Z,10.30
2022-09-18T22:56:57.412Z,10.30
2022-09-18T22:59:45.578Z,10.30
2022-09-18T23:02:33.874Z,10.30
2022-09-18T23:05:22.077Z,10.30
2022-09-18T23:08:11.341Z,10.30
2022-09-18T23:11:03.125Z,10.30
2022-09-18T23:13:55.489Z,10.30
2022-09-18T23:16:44.051Z,10.30
2022-09-18T23:19:34.696Z,10.30
2022-09-18T23:22:23.115Z,10.30
2022-09-18T23:25:11.571Z,10.30
2022-09-18T23:27:59.732Z,10.40
2022-09-18T23:30:49.295Z,10.40
2022-09-18T23:33:38.337Z,10.40
2022-09-18T23:36:28.849Z,10.40
2022-09-18T23:39:19.415Z,10.50
2022-09-18T23:42:08.920Z,10.50
2022-09-18T23:44:57.193Z,10.50
2022-09-18T23:47:46.755Z,10.50
2022-09-18T23:50:35.086Z,10.50
2022-09-18T23:53:24.635Z,10.50
2022-09-18T23:56:14.674Z,10.50
2022-09-18T23:59:04.734Z,10.50
